createdAt,value
2019-04-05T00:03:20.066Z,34.97
2019-04-05T00:08:23.724Z,35.33
2019-04-05T00:13:27.340Z,35.46
2019-04-05T00:18:31.267Z,36.02
2019-04-05T00:23:34.885Z,36.07
2019-04-05T00:28:38.502Z,36.36
2019-04-05T00:33:42.122Z,36.32
2019-04-05T00:38:45.745Z,35.88
2019-04-05T00:43:49.372Z,36.39
2019-04-05T00:48:52.981Z,36.61
2019-04-05T00:53:56.609Z,36.68
2019-04-05T00:59:00.223Z,36.76
2019-04-05T01:04:03.946Z,36.84
2019-04-05T01:09:08.383Z,37.14
2019-04-05T01:14:12.001Z,36.93
2019-04-05T01:19:15.619Z,37.14
2019-04-05T01:24:19.252Z,37.14
2019-04-05T01:29:23.575Z,36.68
2019-04-05T01:34:27.194Z,34.21
2019-04-05T01:39:30.835Z,31.95
2019-04-05T01:44:34.441Z,29.81
2019-04-05T01:49:38.054Z,29.34
2019-04-05T01:54:41.676Z,29.44
2019-04-05T01:59:45.295Z,29.74
2019-04-05T02:04:48.914Z,30.43
2019-04-05T02:09:52.535Z,31.01
2019-04-05T02:14:56.087Z,31.29
2019-04-05T02:19:59.774Z,32.42
2019-04-05T02:25:03.808Z,33.01
2019-04-05T02:30:07.421Z,33.01
2019-04-05T02:35:11.145Z,33.64
2019-04-05T02:40:16.091Z,33.89
2019-04-05T02:45:19.723Z,34.38
2019-04-05T02:50:24.800Z,34.56
2019-04-05T02:55:28.384Z,35.05
2019-04-05T03:00:32.359Z,35.65
2019-04-05T03:05:36.751Z,35.87
2019-04-05T03:11:01.880Z,35.95
2019-04-05T03:16:07.357Z,36.21
2019-04-05T03:21:11.369Z,36.28
2019-04-05T03:26:17.630Z,36.48
2019-04-05T03:31:25.038Z,36.62
2019-04-05T03:36:27.047Z,36.43
2019-04-05T03:41:30.771Z,36.42
2019-04-05T03:46:34.488Z,36.96
2019-04-05T03:51:38.103Z,36.86
2019-04-05T03:56:41.731Z,36.95
2019-04-05T04:01:45.344Z,37.56
2019-04-05T04:06:48.963Z,37.32
2019-04-05T04:11:53.039Z,37.81
2019-04-05T04:17:11.477Z,37.77
2019-04-05T04:22:11.058Z,37.19
2019-04-05T04:27:14.703Z,37.43
2019-04-05T04:32:18.309Z,36.74
2019-04-05T04:37:21.956Z,35.16
2019-04-05T04:42:25.823Z,31.67
2019-04-05T04:47:29.483Z,31.18
2019-04-05T04:52:33.507Z,31.38
2019-04-05T04:57:37.141Z,30.02
2019-04-05T05:02:40.895Z,30.67
2019-04-05T05:07:44.962Z,31.02
2019-04-05T05:12:48.609Z,32.13
2019-04-05T05:17:58.571Z,33.46
2019-04-05T05:22:57.586Z,33.55
2019-04-05T05:28:01.213Z,33.63
2019-04-05T05:33:06.145Z,33.63
2019-04-05T05:38:09.721Z,34.57
2019-04-05T05:43:13.496Z,32.96
2019-04-05T05:48:19.125Z,34.19
2019-04-05T05:53:22.775Z,34.91
2019-04-05T05:58:26.633Z,34.45
2019-04-05T06:03:30.331Z,34.35
2019-04-05T06:08:34.059Z,34.46
2019-04-05T06:13:37.672Z,34.43
2019-04-05T06:18:41.396Z,34.08
2019-04-05T06:23:45.493Z,34.00
2019-04-05T06:28:49.213Z,34.01
2019-04-05T06:33:52.894Z,33.97
2019-04-05T06:38:56.591Z,33.96
2019-04-05T06:44:00.433Z,34.22
2019-04-05T06:49:04.849Z,33.80
2019-04-05T06:54:08.471Z,34.09
2019-04-05T06:59:12.095Z,34.04
2019-04-05T07:04:15.745Z,34.03
2019-04-05T07:09:19.330Z,33.97
2019-04-05T07:14:22.953Z,34.10
2019-04-05T07:19:26.568Z,34.06
2019-04-05T07:24:30.189Z,34.04
2019-04-05T07:29:33.812Z,34.01
2019-04-05T07:34:37.436Z,33.90
2019-04-05T07:39:41.046Z,34.00
2019-04-05T07:44:44.610Z,33.83
2019-04-05T07:49:48.283Z,34.08
2019-04-05T07:54:51.913Z,34.05
2019-04-05T07:59:59.976Z,34.08
2019-04-05T08:05:06.316Z,34.12
2019-04-05T08:10:10.347Z,33.96
2019-04-05T08:15:14.368Z,34.18
2019-04-05T08:20:18.000Z,34.21
2019-04-05T08:25:21.608Z,34.29
2019-04-05T08:30:25.563Z,34.25
2019-04-05T08:35:29.369Z,34.08
2019-04-05T08:40:32.979Z,33.96
2019-04-05T08:45:36.597Z,33.96
2019-04-05T08:50:40.219Z,33.59
2019-04-05T08:55:43.837Z,33.67
2019-04-05T09:00:47.454Z,33.94
2019-04-05T09:05:51.075Z,33.94
2019-04-05T09:10:54.821Z,33.97
2019-04-05T09:16:03.128Z,34.03
2019-04-05T09:21:09.937Z,34.03
2019-04-05T09:26:12.311Z,33.93
2019-04-05T09:31:16.191Z,33.85
2019-04-05T09:36:19.866Z,33.25
2019-04-05T09:41:23.487Z,33.94
2019-04-05T09:46:27.100Z,33.99
2019-04-05T09:51:30.723Z,33.98
2019-04-05T09:56:34.337Z,33.95
2019-04-05T10:01:38.058Z,34.02
2019-04-05T10:06:41.679Z,33.74
2019-04-05T10:11:45.398Z,33.98
2019-04-05T10:16:49.031Z,33.75
2019-04-05T10:21:52.842Z,33.65
2019-04-05T10:26:56.566Z,33.61
2019-04-05T10:32:00.182Z,33.58
2019-04-05T10:37:03.804Z,33.60
2019-04-05T10:42:15.516Z,33.60
2019-04-05T10:47:19.132Z,33.44
2019-04-05T10:52:22.754Z,33.54
2019-04-05T10:57:26.380Z,34.18
2019-04-05T11:02:29.994Z,32.98
2019-04-05T11:07:35.278Z,34.70
2019-04-05T11:12:39.490Z,34.79
2019-04-05T11:17:43.106Z,34.84
2019-04-05T11:22:46.975Z,34.86
2019-04-05T11:27:51.677Z,34.89
2019-04-05T11:32:55.299Z,34.89
2019-04-05T11:37:58.878Z,34.77
2019-04-05T11:43:03.226Z,34.62
2019-04-05T11:48:06.875Z,29.81
2019-04-05T11:53:10.490Z,28.14
2019-04-05T11:58:14.109Z,28.06
2019-04-05T12:03:19.264Z,26.70
2019-04-05T12:08:23.211Z,27.64
2019-04-05T12:13:26.771Z,27.12
2019-04-05T12:18:32.545Z,28.25
2019-04-05T12:23:36.193Z,26.71
2019-04-05T12:28:39.829Z,26.75
2019-04-05T12:33:43.396Z,27.33
2019-04-05T12:38:47.161Z,27.22
2019-04-05T12:43:51.123Z,26.52
2019-04-05T12:48:55.037Z,26.11
2019-04-05T12:53:58.841Z,26.92
2019-04-05T12:59:02.459Z,27.43
2019-04-05T13:04:06.079Z,27.38
2019-04-05T13:09:11.331Z,27.29
2019-04-05T13:14:14.952Z,26.30
2019-04-05T13:19:18.675Z,26.41
2019-04-05T13:24:22.289Z,25.66
2019-04-05T13:29:25.913Z,25.41
2019-04-05T13:34:29.636Z,24.87
2019-04-05T13:39:33.490Z,25.14
2019-04-05T13:44:37.389Z,23.68
2019-04-05T13:49:41.469Z,22.40
2019-04-05T13:54:45.238Z,23.20
2019-04-05T13:59:48.860Z,23.42
2019-04-05T14:04:53.947Z,22.66
2019-04-05T14:09:58.266Z,23.05
2019-04-05T14:15:01.872Z,23.16
2019-04-05T14:20:08.845Z,23.56
2019-04-05T14:25:11.643Z,23.88
2019-04-05T14:30:16.929Z,25.30
2019-04-05T14:35:20.522Z,24.80
2019-04-05T14:40:24.102Z,24.70
2019-04-05T14:45:27.671Z,25.48
2019-04-05T14:50:31.231Z,25.18
2019-04-05T14:55:34.875Z,25.78
2019-04-05T15:00:38.579Z,26.35
2019-04-05T15:05:42.193Z,25.24
2019-04-05T15:10:45.739Z,24.68
2019-04-05T15:15:49.470Z,24.21
2019-04-05T15:20:53.153Z,25.22
2019-04-05T15:25:56.781Z,28.54
2019-04-05T15:31:00.500Z,28.20
2019-04-05T15:36:05.281Z,27.95
2019-04-05T15:41:09.198Z,28.35
2019-04-05T15:46:12.785Z,28.96
2019-04-05T15:51:16.366Z,29.48
2019-04-05T15:56:19.986Z,29.80
2019-04-05T16:01:23.545Z,30.19
2019-04-05T16:06:27.118Z,29.80
2019-04-05T16:11:30.768Z,29.79
2019-04-05T16:16:34.335Z,29.46
2019-04-05T16:21:39.435Z,29.14
2019-04-05T16:26:43.080Z,29.27
2019-04-05T16:31:46.648Z,29.37
2019-04-05T16:36:50.234Z,29.26
2019-04-05T16:41:54.823Z,29.56
2019-04-05T16:46:58.412Z,29.41
2019-04-05T16:52:01.995Z,30.09
2019-04-05T16:57:05.609Z,30.79
2019-04-05T17:02:09.209Z,31.04
2019-04-05T17:07:12.769Z,31.01
2019-04-05T17:12:16.768Z,31.03
2019-04-05T17:17:20.357Z,30.89
2019-04-05T17:22:23.953Z,29.76
2019-04-05T17:27:29.046Z,29.66
2019-04-05T17:32:32.903Z,29.36
2019-04-05T17:37:40.382Z,28.02
2019-04-05T17:42:44.615Z,26.64
2019-04-05T17:47:48.587Z,26.84
2019-04-05T17:52:53.644Z,27.98
2019-04-05T17:57:57.477Z,29.23
2019-04-05T18:03:01.830Z,30.05
2019-04-05T18:08:05.779Z,30.65
2019-04-05T18:13:09.346Z,31.33
2019-04-05T18:18:13.056Z,31.90
2019-04-05T18:23:24.778Z,32.12
2019-04-05T18:28:22.208Z,32.22
2019-04-05T18:33:25.772Z,32.33
2019-04-05T18:38:29.381Z,32.74
2019-04-05T18:43:32.932Z,32.69
2019-04-05T18:48:36.540Z,32.96
2019-04-05T18:53:40.132Z,32.92
2019-04-05T18:58:43.778Z,33.03
2019-04-05T19:03:47.335Z,32.71
2019-04-05T19:08:50.932Z,37.22
2019-04-05T19:14:01.035Z,42.82
2019-04-05T19:18:59.812Z,37.80
2019-04-05T19:24:03.414Z,35.27
2019-04-05T19:29:07.048Z,34.12
2019-04-05T19:49:27.028Z,33.64
2019-04-05T19:54:30.615Z,34.34
2019-04-05T19:59:34.208Z,34.55
2019-04-05T20:04:38.068Z,35.01
2019-04-05T20:09:42.186Z,35.56
2019-04-05T20:14:46.322Z,36.26
2019-04-05T20:19:49.892Z,37.23
2019-04-05T20:24:53.558Z,37.85
2019-04-05T20:29:57.159Z,38.19
2019-04-05T20:35:00.938Z,37.99
2019-04-05T20:40:07.238Z,38.50
2019-04-05T20:45:10.805Z,38.83
2019-04-05T20:50:14.360Z,38.65
2019-04-05T20:55:18.103Z,38.47
2019-04-05T21:00:21.661Z,38.42
2019-04-05T21:05:25.868Z,38.69
2019-04-05T21:10:29.469Z,38.94
2019-04-05T21:15:33.055Z,39.10
2019-04-05T21:20:36.631Z,39.51
2019-04-05T21:25:40.214Z,39.64
2019-04-05T21:30:43.790Z,40.12
2019-04-05T21:35:47.383Z,40.02
2019-04-05T21:40:50.968Z,40.30
2019-04-05T21:45:54.543Z,40.69
2019-04-05T21:50:58.550Z,40.62
2019-04-05T21:56:02.073Z,40.69
2019-04-05T22:01:07.778Z,40.89
2019-04-05T22:06:11.814Z,41.76
2019-04-05T22:11:15.376Z,41.46
2019-04-05T22:16:18.990Z,41.69
2019-04-05T22:21:22.539Z,41.79
2019-04-05T22:26:26.144Z,42.13
2019-04-05T22:31:29.700Z,41.90
2019-04-05T22:36:33.282Z,42.28
2019-04-05T22:41:36.875Z,42.70
2019-04-05T22:46:40.508Z,42.97
2019-04-05T22:51:44.587Z,43.80
2019-04-05T22:56:48.459Z,44.09
2019-04-05T23:01:52.065Z,44.11
2019-04-05T23:06:55.648Z,44.24
2019-04-05T23:11:59.205Z,43.84
2019-04-05T23:17:02.823Z,44.60
2019-04-05T23:22:06.373Z,44.11
2019-04-05T23:27:09.974Z,44.58
2019-04-05T23:32:13.538Z,44.57
2019-04-05T23:37:17.151Z,44.75
2019-04-05T23:42:20.702Z,45.39
2019-04-05T23:47:24.303Z,45.37
2019-04-05T23:52:27.857Z,45.80
2019-04-05T23:57:31.430Z,46.62
